Time;durP1;ratioP1;P1;durP2;ratioP2;P2;SDS_P1;SDS_P2;PMS_P1;PMS_P2;Temp;Humidity;BMP_temperature;BMP_pressure;BME280_temperature;BME280_humidity;BME280_pressure;Samples;Min_cycle;Max_cycle;Signal;HPM_P1;HPM_P2
2023/10/11 00:02:14;;;;;;;5.57;4.63;;;15.90;99.90;;;;;;5052712;28;20978;-62
2023/10/11 00:04:41;;;;;;;8.10;5.20;;;15.90;99.90;;;;;;5053741;28;20444;-62
2023/10/11 00:07:09;;;;;;;9.07;5.00;;;15.90;99.90;;;;;;5053709;28;20442;-62
2023/10/11 00:09:38;;;;;;;7.23;4.70;;;15.90;99.90;;;;;;5053468;28;21018;-61
2023/10/11 00:12:11;;;;;;;9.27;4.87;;;15.90;99.90;;;;;;5053192;28;20552;-62
2023/10/11 00:14:39;;;;;;;8.73;4.40;;;15.90;99.90;;;;;;5053729;28;20768;-61
2023/10/11 00:17:08;;;;;;;8.90;4.73;;;15.90;99.90;;;;;;5053183;28;20475;-62
2023/10/11 00:19:38;;;;;;;7.13;4.90;;;15.90;99.90;;;;;;5053132;28;20954;-62
2023/10/11 00:22:06;;;;;;;7.27;4.70;;;15.90;99.90;;;;;;5053118;28;20456;-62
2023/10/11 00:24:33;;;;;;;7.00;4.67;;;15.90;99.90;;;;;;5052713;28;20470;-63
2023/10/11 00:26:59;;;;;;;13.40;5.53;;;15.90;99.90;;;;;;5052957;28;20519;-62
2023/10/11 00:29:29;;;;;;;6.37;4.43;;;15.80;99.90;;;;;;5056810;28;20452;-62
2023/10/11 00:31:56;;;;;;;7.17;4.43;;;15.90;99.90;;;;;;5056356;28;20476;-61
2023/10/11 00:34:23;;;;;;;6.53;4.87;;;15.90;99.90;;;;;;5057136;28;20447;-63
2023/10/11 00:36:50;;;;;;;10.10;5.30;;;15.80;99.90;;;;;;5056205;28;20577;-62
2023/10/11 00:39:17;;;;;;;6.63;4.03;;;15.90;99.90;;;;;;5056248;28;20815;-62
2023/10/11 00:41:47;;;;;;;5.63;4.17;;;15.80;99.90;;;;;;5056657;28;20473;-62
2023/10/11 00:44:17;;;;;;;6.50;3.87;;;15.90;99.90;;;;;;5056513;28;20444;-62
2023/10/11 00:46:56;;;;;;;6.07;4.50;;;15.90;99.90;;;;;;5056584;28;20440;-61
2023/10/11 00:49:34;;;;;;;4.90;3.80;;;15.80;99.90;;;;;;5056678;28;20478;-62
2023/10/11 00:52:04;;;;;;;8.73;4.40;;;15.90;99.90;;;;;;5056541;28;20460;-62
2023/10/11 00:54:31;;;;;;;5.60;4.20;;;15.90;99.90;;;;;;5056241;28;20499;-62
2023/10/11 00:56:59;;;;;;;6.57;4.60;;;15.80;99.90;;;;;;5056288;28;20481;-62
2023/10/11 00:59:28;;;;;;;6.27;4.20;;;15.90;99.90;;;;;;5056398;28;20444;-61
2023/10/11 01:01:58;;;;;;;4.77;4.30;;;15.90;99.90;;;;;;5056200;28;20465;-62
2023/10/11 01:04:33;;;;;;;7.33;5.10;;;15.90;99.90;;;;;;5056694;28;20444;-61
2023/10/11 01:07:00;;;;;;;6.10;4.63;;;15.90;99.90;;;;;;5057242;28;20417;-62
2023/10/11 01:09:28;;;;;;;7.10;4.37;;;15.90;99.90;;;;;;5056382;28;20450;-61
2023/10/11 01:11:55;;;;;;;6.47;4.50;;;15.90;99.90;;;;;;5055741;28;20463;-62
2023/10/11 01:14:23;;;;;;;8.83;3.90;;;15.90;99.90;;;;;;5055765;28;20783;-62
2023/10/11 01:16:51;;;;;;;6.20;4.67;;;15.90;99.90;;;;;;5055937;28;20499;-61
2023/10/11 01:19:20;;;;;;;6.37;4.30;;;15.90;99.90;;;;;;5056160;28;20439;-61
2023/10/11 01:21:51;;;;;;;6.63;4.20;;;15.80;99.90;;;;;;5055571;28;20982;-62
2023/10/11 01:24:18;;;;;;;6.07;4.30;;;15.80;99.90;;;;;;5056323;28;20425;-62
2023/10/11 01:26:45;;;;;;;7.57;4.47;;;15.80;99.90;;;;;;5055437;28;20440;-62
2023/10/11 01:29:12;;;;;;;6.43;4.30;;;15.70;99.90;;;;;;5055826;28;20473;-61
2023/10/11 01:31:39;;;;;;;6.30;4.50;;;15.70;99.90;;;;;;5055821;28;20483;-62
2023/10/11 01:34:06;;;;;;;7.90;4.37;;;15.60;99.90;;;;;;5055439;28;20912;-62
2023/10/11 01:36:34;;;;;;;13.70;4.87;;;15.60;99.90;;;;;;5055477;28;20495;-62
2023/10/11 01:39:07;;;;;;;9.83;4.77;;;15.50;99.90;;;;;;5054991;28;20451;-61
2023/10/11 01:41:36;;;;;;;9.73;5.40;;;15.50;99.90;;;;;;5055734;28;20466;-61
2023/10/11 01:44:03;;;;;;;7.03;4.70;;;15.50;99.90;;;;;;5055857;28;20456;-60
2023/10/11 01:46:35;;;;;;;5.57;4.27;;;15.50;99.90;;;;;;5055926;28;20536;-63
2023/10/11 01:49:05;;;;;;;7.27;4.40;;;15.50;99.90;;;;;;5055340;28;20453;-63
2023/10/11 01:51:38;;;;;;;6.77;4.13;;;15.50;99.90;;;;;;5055005;28;20889;-62
2023/10/11 01:54:07;;;;;;;7.63;4.23;;;15.50;99.90;;;;;;5055131;28;20520;-62
2023/10/11 01:56:34;;;;;;;10.33;5.23;;;15.50;99.90;;;;;;5055192;28;20444;-62
2023/10/11 01:59:04;;;;;;;9.13;4.70;;;15.50;99.90;;;;;;5054973;28;20448;-62
2023/10/11 02:01:38;;;;;;;7.60;3.80;;;15.50;99.90;;;;;;5055134;28;20464;-61
2023/10/11 02:04:10;;;;;;;6.20;4.43;;;15.50;99.90;;;;;;5055028;28;21001;-62
2023/10/11 02:06:39;;;;;;;7.10;5.37;;;15.50;99.90;;;;;;5055200;28;20863;-62
2023/10/11 02:09:09;;;;;;;7.27;4.57;;;15.50;99.90;;;;;;5055039;28;20474;-62
2023/10/11 02:11:36;;;;;;;8.23;4.90;;;15.50;99.90;;;;;;5054728;28;20583;-62
2023/10/11 02:14:03;;;;;;;7.50;4.87;;;15.50;99.90;;;;;;5054589;28;20942;-62
2023/10/11 02:16:32;;;;;;;7.43;4.77;;;15.50;99.90;;;;;;5054937;28;20444;-61
2023/10/11 02:18:59;;;;;;;5.67;4.13;;;15.50;99.90;;;;;;5054848;28;20436;-62
2023/10/11 02:21:27;;;;;;;7.20;4.63;;;15.50;99.90;;;;;;5054926;28;20489;-61
2023/10/11 02:23:56;;;;;;;7.87;4.50;;;15.50;99.90;;;;;;5055011;28;20490;-61
2023/10/11 02:26:28;;;;;;;7.10;4.60;;;15.60;99.90;;;;;;5054809;28;20446;-62
2023/10/11 02:28:55;;;;;;;8.80;4.63;;;15.60;99.90;;;;;;5054689;28;20944;-62
2023/10/11 02:31:25;;;;;;;6.50;4.43;;;15.60;99.90;;;;;;5055285;28;20575;-62
2023/10/11 02:33:52;;;;;;;9.80;5.30;;;15.70;99.90;;;;;;5055177;28;20438;-63
2023/10/11 02:36:19;;;;;;;7.10;4.33;;;15.70;99.90;;;;;;5054580;28;20441;-62
2023/10/11 02:38:50;;;;;;;5.77;4.67;;;15.70;99.90;;;;;;5054449;28;20480;-60
2023/10/11 02:41:20;;;;;;;5.53;3.60;;;15.70;99.90;;;;;;5054891;28;20468;-63
2023/10/11 02:43:49;;;;;;;7.80;4.50;;;15.70;99.90;;;;;;5054496;28;20451;-61
2023/10/11 02:46:16;;;;;;;5.67;3.80;;;15.60;99.90;;;;;;5054474;28;20440;-61
2023/10/11 02:48:45;;;;;;;11.33;4.30;;;15.60;99.90;;;;;;5054352;28;20531;-62
2023/10/11 02:51:17;;;;;;;6.30;4.77;;;15.60;99.90;;;;;;5053193;28;20500;-62
2023/10/11 02:53:44;;;;;;;5.73;4.40;;;15.60;99.90;;;;;;5054956;28;20485;-62
2023/10/11 02:56:11;;;;;;;8.60;4.17;;;15.60;99.90;;;;;;5054183;28;20436;-62
2023/10/11 02:58:39;;;;;;;5.13;4.63;;;15.70;99.90;;;;;;5054250;28;20485;-62
2023/10/11 03:01:14;;;;;;;5.10;3.87;;;15.70;99.90;;;;;;5053921;28;20444;-63
2023/10/11 03:03:41;;;;;;;7.77;4.67;;;15.70;99.90;;;;;;5054052;28;20426;-62
2023/10/11 03:06:08;;;;;;;5.80;4.10;;;15.70;99.90;;;;;;5054111;28;20459;-62
2023/10/11 03:08:35;;;;;;;5.60;4.20;;;15.60;99.90;;;;;;5054110;28;20965;-62
2023/10/11 03:11:04;;;;;;;8.03;4.67;;;15.70;99.90;;;;;;5054023;28;20451;-62
2023/10/11 03:13:41;;;;;;;7.73;4.60;;;15.70;99.90;;;;;;5054310;28;20452;-62
2023/10/11 03:16:11;;;;;;;6.70;4.83;;;15.70;99.90;;;;;;5053618;28;20429;-61
2023/10/11 03:18:39;;;;;;;5.40;4.53;;;15.70;99.90;;;;;;5053671;28;20465;-62
2023/10/11 03:21:17;;;;;;;6.30;4.87;;;15.80;99.90;;;;;;5054367;28;20494;-62
2023/10/11 03:23:47;;;;;;;6.30;4.67;;;15.80;99.90;;;;;;5053576;28;20425;-62
2023/10/11 03:26:18;;;;;;;4.00;3.60;;;15.80;99.90;;;;;;5053707;28;20480;-62
2023/10/11 03:28:45;;;;;;;7.80;3.97;;;15.80;99.90;;;;;;5054031;28;20421;-62
2023/10/11 03:31:14;;;;;;;6.13;3.77;;;15.80;99.90;;;;;;5053269;28;20483;-62
2023/10/11 03:33:42;;;;;;;9.20;4.50;;;15.80;99.90;;;;;;5053460;28;20418;-62
2023/10/11 03:36:18;;;;;;;6.20;4.07;;;15.90;99.90;;;;;;5053684;28;20449;-62
2023/10/11 03:38:51;;;;;;;8.70;4.10;;;15.90;99.90;;;;;;5053507;28;20511;-60
2023/10/11 03:41:25;;;;;;;4.77;3.50;;;16.00;99.90;;;;;;5053566;28;20469;-61
2023/10/11 03:43:54;;;;;;;9.80;4.57;;;16.00;99.90;;;;;;5053408;28;20430;-61
2023/10/11 03:46:25;;;;;;;5.87;3.83;;;16.10;99.90;;;;;;5053386;28;20816;-62
2023/10/11 03:48:56;;;;;;;5.30;4.03;;;16.20;99.90;;;;;;5053513;28;20455;-62
2023/10/11 03:51:23;;;;;;;7.33;3.70;;;16.30;99.90;;;;;;5053197;28;20670;-62
2023/10/11 03:53:52;;;;;;;10.60;4.43;;;16.30;99.90;;;;;;5053515;28;20445;-62
2023/10/11 03:56:18;;;;;;;9.73;3.87;;;16.40;99.90;;;;;;5053152;28;20451;-62
2023/10/11 03:58:45;;;;;;;9.13;5.03;;;16.50;99.90;;;;;;5052938;28;20489;-63
2023/10/11 04:01:14;;;;;;;9.63;4.17;;;16.50;99.90;;;;;;5073567;22;20484;-60
2023/10/11 04:03:42;;;;;;;6.43;3.70;;;16.50;99.90;;;;;;5032812;28;20431;-60
2023/10/11 04:06:15;;;;;;;8.53;4.30;;;16.50;99.90;;;;;;5032987;28;20502;-60
2023/10/11 04:08:43;;;;;;;7.60;4.37;;;16.50;99.90;;;;;;5033078;28;20426;-60
2023/10/11 04:12:24;;;;;;;7.63;4.17;;;16.60;99.90;;;;;;5090232;27;20569;-58
2023/10/11 04:14:51;;;;;;;7.43;4.23;;;16.60;99.90;;;;;;5090267;28;20902;-58
2023/10/11 04:17:26;;;;;;;8.30;4.00;;;16.60;99.90;;;;;;5090076;28;21019;-58
2023/10/11 04:20:00;;;;;;;9.03;4.07;;;16.60;99.90;;;;;;5090227;28;20899;-59
2023/10/11 04:22:31;;;;;;;5.80;3.63;;;16.60;99.90;;;;;;5090290;28;20465;-60
2023/10/11 04:25:06;;;;;;;6.70;4.07;;;16.50;99.90;;;;;;5090830;28;20517;-59
2023/10/11 04:27:48;;;;;;;6.70;3.30;;;16.50;99.90;;;;;;5090406;28;20487;-57
2023/10/11 04:30:26;;;;;;;7.43;4.13;;;16.50;99.90;;;;;;5089967;28;20480;-59
2023/10/11 04:32:56;;;;;;;4.80;3.53;;;16.60;99.90;;;;;;5089942;28;20989;-59
2023/10/11 04:35:25;;;;;;;5.80;3.67;;;16.60;99.90;;;;;;5090174;28;20445;-59
2023/10/11 04:37:55;;;;;;;8.60;4.93;;;16.60;99.90;;;;;;5089678;28;20947;-59
2023/10/11 04:40:39;;;;;;;4.93;3.50;;;16.60;99.90;;;;;;5090027;28;20482;-59
2023/10/11 04:43:20;;;;;;;6.43;4.20;;;16.70;99.90;;;;;;5089700;28;20466;-59
2023/10/11 04:45:47;;;;;;;7.97;3.80;;;16.70;99.90;;;;;;5090394;28;20426;-59
2023/10/11 04:48:15;;;;;;;9.83;4.70;;;16.80;99.90;;;;;;5089720;28;20437;-60
2023/10/11 04:50:47;;;;;;;8.90;4.47;;;16.90;99.90;;;;;;5089677;28;20475;-60
2023/10/11 04:53:18;;;;;;;11.57;5.73;;;16.90;99.80;;;;;;5089361;28;20921;-60
2023/10/11 04:55:47;;;;;;;6.57;4.00;;;16.90;99.70;;;;;;5089622;28;20498;-60
2023/10/11 04:58:39;;;;;;;6.50;4.40;;;16.90;99.70;;;;;;5089241;28;20803;-59
2023/10/11 05:01:08;;;;;;;7.90;4.43;;;16.90;99.60;;;;;;5089126;28;20505;-59
2023/10/11 05:03:37;;;;;;;7.77;4.40;;;17.00;99.40;;;;;;5089464;28;20532;-60
2023/10/11 05:06:13;;;;;;;6.07;4.13;;;17.00;99.10;;;;;;5089204;28;20453;-61
2023/10/11 05:08:54;;;;;;;7.07;4.33;;;17.10;99.00;;;;;;5089439;28;20801;-59
2023/10/11 05:11:32;;;;;;;10.80;4.27;;;17.10;99.00;;;;;;5088753;28;20569;-59
2023/10/11 05:14:10;;;;;;;10.10;4.00;;;17.10;99.10;;;;;;5089566;28;20427;-60
2023/10/11 05:16:44;;;;;;;5.70;3.73;;;17.10;99.00;;;;;;5089354;28;20440;-60
2023/10/11 05:19:14;;;;;;;6.43;3.63;;;17.10;98.90;;;;;;5089341;28;20455;-60
2023/10/11 05:21:43;;;;;;;7.60;4.70;;;17.10;98.90;;;;;;5087037;28;20466;-59
2023/10/11 05:24:29;;;;;;;6.93;4.00;;;17.10;98.80;;;;;;5075352;28;20821;-59
2023/10/11 05:27:11;;;;;;;7.43;4.00;;;17.10;98.80;;;;;;5075344;28;20435;-60
2023/10/11 05:30:06;;;;;;;8.43;4.40;;;17.10;99.10;;;;;;5075570;28;20491;-59
2023/10/11 05:32:32;;;;;;;9.30;4.70;;;17.10;99.10;;;;;;5075263;28;20499;-61
2023/10/11 05:35:19;;;;;;;7.17;4.43;;;17.20;99.10;;;;;;5076628;28;20441;-60
2023/10/11 05:51:29;;;;;;;9.90;4.70;;;17.20;99.00;;;;;;5075197;28;20485;-60
2023/10/11 05:53:59;;;;;;;7.00;4.87;;;17.30;98.90;;;;;;5075205;28;20439;-60
2023/10/11 05:56:33;;;;;;;8.43;4.70;;;17.30;99.00;;;;;;5074745;28;20496;-59
2023/10/11 05:59:03;;;;;;;10.00;4.67;;;17.40;98.50;;;;;;5075072;28;20524;-60
2023/10/11 06:01:34;;;;;;;7.93;4.00;;;17.40;98.30;;;;;;5074850;28;20463;-59
2023/10/11 06:04:03;;;;;;;14.23;5.03;;;17.40;98.00;;;;;;5075406;28;20424;-60
2023/10/11 06:06:38;;;;;;;8.70;4.10;;;17.40;97.90;;;;;;5074820;28;20441;-60
2023/10/11 06:09:06;;;;;;;9.30;4.70;;;17.40;97.90;;;;;;5074255;28;20904;-61
2023/10/11 06:11:36;;;;;;;7.77;4.60;;;17.50;97.70;;;;;;5074648;28;20493;-60
2023/10/11 06:14:06;;;;;;;8.53;4.40;;;17.50;97.50;;;;;;5074251;28;20493;-60
2023/10/11 06:16:38;;;;;;;11.73;4.47;;;17.50;97.30;;;;;;5074608;28;20432;-60
2023/10/11 06:19:16;;;;;;;6.70;4.20;;;17.50;97.20;;;;;;5074243;28;20428;-61
2023/10/11 06:21:56;;;;;;;6.57;4.20;;;17.50;97.10;;;;;;5074192;28;20496;-60
2023/10/11 06:24:23;;;;;;;12.10;4.40;;;17.60;97.00;;;;;;5074824;28;20921;-61
2023/10/11 06:26:56;;;;;;;6.47;4.47;;;17.50;96.90;;;;;;5074665;28;20791;-61
2023/10/11 06:29:23;;;;;;;6.93;4.20;;;17.60;96.80;;;;;;5074264;28;20854;-60
2023/10/11 06:31:53;;;;;;;8.47;4.70;;;17.60;96.80;;;;;;5073910;28;20483;-60
2023/10/11 06:34:23;;;;;;;5.77;3.97;;;17.60;96.80;;;;;;5073118;28;20960;-60
2023/10/11 06:36:51;;;;;;;11.13;4.60;;;17.60;96.70;;;;;;5074066;28;20436;-62
2023/10/11 06:40:07;;;;;;;6.83;3.77;;;17.60;96.60;;;;;;5074294;28;20826;-61
2023/10/11 06:42:21;;;;;;;9.10;4.27;;;17.70;96.40;;;;;;5073373;28;20504;-61
2023/10/11 06:44:51;;;;;;;6.77;3.97;;;17.70;96.20;;;;;;5073867;28;20439;-60
2023/10/11 06:47:20;;;;;;;5.40;4.37;;;17.80;96.20;;;;;;5073736;28;20461;-60
2023/10/11 06:49:54;;;;;;;7.13;4.00;;;17.80;96.00;;;;;;5073952;28;20435;-61
2023/10/11 06:52:25;;;;;;;7.40;4.50;;;17.80;95.80;;;;;;5073498;28;20486;-61
2023/10/11 06:55:08;;;;;;;9.10;4.47;;;17.80;95.60;;;;;;5073868;28;20458;-61
2023/10/11 06:57:39;;;;;;;6.00;4.17;;;17.90;95.50;;;;;;5073720;28;20431;-63
2023/10/11 07:00:12;;;;;;;6.33;4.10;;;17.90;95.30;;;;;;5073536;28;20430;-61
2023/10/11 07:02:47;;;;;;;8.00;4.10;;;18.00;95.10;;;;;;5073666;28;20458;-60
2023/10/11 07:05:17;;;;;;;8.70;4.20;;;18.10;94.80;;;;;;5073643;28;20975;-60
2023/10/11 07:07:47;;;;;;;7.03;3.70;;;18.20;94.30;;;;;;5073469;28;20865;-59
2023/10/11 07:10:28;;;;;;;9.27;4.10;;;18.20;93.70;;;;;;5073075;28;20952;-60
2023/10/11 07:13:04;;;;;;;10.00;3.80;;;18.30;93.40;;;;;;5073491;28;20515;-61
2023/10/11 07:15:42;;;;;;;5.93;4.43;;;18.20;93.00;;;;;;5073179;28;20419;-61
2023/10/11 07:18:12;;;;;;;7.80;3.93;;;18.20;92.80;;;;;;5073229;28;20443;-61
2023/10/11 07:20:58;;;;;;;8.97;4.73;;;18.20;92.70;;;;;;5073638;28;20443;-61
2023/10/11 07:23:35;;;;;;;10.40;4.80;;;18.20;92.60;;;;;;5073217;28;20834;-61
2023/10/11 07:26:22;;;;;;;7.60;4.83;;;18.20;92.40;;;;;;5073251;28;20431;-60
2023/10/11 07:28:50;;;;;;;8.97;4.10;;;18.20;92.20;;;;;;5073746;28;20433;-60
2023/10/11 07:31:18;;;;;;;8.67;4.70;;;18.30;92.10;;;;;;5073396;28;20566;-60
2023/10/11 07:33:49;;;;;;;6.43;4.23;;;18.30;92.00;;;;;;5073173;28;20450;-61
2023/10/11 07:36:20;;;;;;;6.13;3.93;;;18.40;91.80;;;;;;5073192;28;20510;-60
2023/10/11 07:38:54;;;;;;;8.80;4.27;;;18.40;91.60;;;;;;5073292;28;20427;-60
2023/10/11 07:41:23;;;;;;;12.33;3.93;;;18.50;91.10;;;;;;5073094;28;20463;-61
2023/10/11 07:43:49;;;;;;;5.80;3.90;;;18.60;90.50;;;;;;5073188;28;20799;-60
2023/10/11 07:46:17;;;;;;;6.30;3.83;;;18.60;90.10;;;;;;5074160;28;20440;-62
2023/10/11 07:48:43;;;;;;;6.00;3.50;;;18.70;89.90;;;;;;5073480;28;20879;-61
2023/10/11 07:51:12;;;;;;;9.20;4.60;;;18.80;89.20;;;;;;5073202;28;20978;-61
2023/10/11 07:53:41;;;;;;;6.83;3.83;;;18.80;88.20;;;;;;5073382;28;20454;-61
2023/10/11 07:56:08;;;;;;;7.37;3.70;;;19.00;86.70;;;;;;5073656;28;20456;-61
2023/10/11 07:58:35;;;;;;;5.10;3.57;;;19.10;85.40;;;;;;5074101;28;20452;-61
2023/10/11 08:01:24;;;;;;;7.23;3.50;;;19.30;84.70;;;;;;5073296;28;20439;-61
2023/10/11 08:03:51;;;;;;;6.70;4.00;;;19.40;83.70;;;;;;5073166;28;20429;-62
2023/10/11 08:06:23;;;;;;;5.50;3.70;;;19.50;82.80;;;;;;5073811;28;20529;-61
2023/10/11 08:08:51;;;;;;;8.87;3.90;;;19.60;82.00;;;;;;5073062;28;20904;-62
2023/10/11 08:11:20;;;;;;;6.83;3.90;;;19.70;81.30;;;;;;5072438;28;20542;-60
2023/10/11 08:13:49;;;;;;;7.43;4.07;;;19.80;80.50;;;;;;5073029;28;20447;-61
2023/10/11 08:16:18;;;;;;;12.73;4.33;;;19.90;79.90;;;;;;5072806;28;20446;-61
2023/10/11 08:18:48;;;;;;;7.10;3.50;;;19.90;79.20;;;;;;5072738;28;20816;-61
2023/10/11 08:21:15;;;;;;;5.67;4.47;;;20.00;78.50;;;;;;5072764;28;20969;-62
2023/10/11 08:23:44;;;;;;;6.20;4.10;;;20.00;77.90;;;;;;5072792;28;20441;-61
2023/10/11 08:26:14;;;;;;;9.70;3.77;;;20.10;77.60;;;;;;5073041;28;20439;-61
2023/10/11 08:28:47;;;;;;;6.33;3.87;;;20.20;76.80;;;;;;5073123;28;20518;-61
2023/10/11 08:31:35;;;;;;;5.07;3.27;;;20.20;76.30;;;;;;5072598;28;20980;-59
2023/10/11 08:34:03;;;;;;;5.33;3.77;;;20.30;76.00;;;;;;5072654;28;20432;-62
2023/10/11 08:36:30;;;;;;;6.83;3.40;;;20.30;75.30;;;;;;5073093;28;20454;-62
2023/10/11 08:39:00;;;;;;;4.90;3.87;;;20.40;74.80;;;;;;5072801;28;20455;-62
2023/10/11 08:41:27;;;;;;;7.57;4.20;;;20.50;74.20;;;;;;5072919;28;20537;-59
2023/10/11 08:43:59;;;;;;;5.80;4.03;;;20.60;73.60;;;;;;5073072;28;20799;-62
2023/10/11 08:46:29;;;;;;;7.40;4.00;;;20.70;73.10;;;;;;5073221;28;20517;-64
2023/10/11 08:49:00;;;;;;;7.07;3.27;;;20.80;72.50;;;;;;5072181;28;20818;-62
2023/10/11 08:51:36;;;;;;;8.60;3.93;;;20.80;72.10;;;;;;5072651;28;20509;-60
2023/10/11 08:54:11;;;;;;;5.57;3.93;;;20.70;71.50;;;;;;5071763;28;20615;-61
2023/10/11 08:56:38;;;;;;;12.23;4.00;;;20.70;71.40;;;;;;5072644;28;20431;-62
2023/10/11 08:59:06;;;;;;;5.70;3.90;;;20.60;71.30;;;;;;5075793;28;20908;-61
2023/10/11 09:01:36;;;;;;;5.93;3.00;;;20.60;71.50;;;;;;5076005;28;20465;-61
2023/10/11 09:04:06;;;;;;;7.97;3.80;;;20.60;71.50;;;;;;5075763;28;20439;-61
2023/10/11 09:06:34;;;;;;;6.87;4.67;;;20.60;71.40;;;;;;5076075;28;20440;-61
2023/10/11 09:09:04;;;;;;;5.07;4.10;;;20.60;70.90;;;;;;5076316;28;20544;-60
2023/10/11 09:11:31;;;;;;;6.63;3.70;;;20.70;70.70;;;;;;5075943;28;20474;-61
2023/10/11 09:14:12;;;;;;;7.23;3.37;;;20.70;70.40;;;;;;5076560;28;20468;-61
2023/10/11 09:16:40;;;;;;;10.17;4.40;;;20.80;70.10;;;;;;5076395;28;20451;-60
2023/10/11 09:19:09;;;;;;;4.20;3.33;;;20.80;69.60;;;;;;5075594;28;20439;-60
2023/10/11 09:21:36;;;;;;;5.33;3.23;;;20.80;69.60;;;;;;5075635;28;20507;-63
2023/10/11 09:24:23;;;;;;;8.00;4.23;;;20.80;69.10;;;;;;5075528;28;20953;-61
2023/10/11 09:27:12;;;;;;;6.00;3.50;;;20.80;69.20;;;;;;5075670;28;20479;-60
2023/10/11 09:29:39;;;;;;;5.47;3.63;;;20.90;69.40;;;;;;5075281;28;20454;-61
2023/10/11 09:32:06;;;;;;;7.00;3.50;;;20.90;69.30;;;;;;5074875;28;20482;-61
2023/10/11 09:34:34;;;;;;;5.77;4.17;;;21.00;69.40;;;;;;5075497;28;20441;-61
2023/10/11 09:37:02;;;;;;;8.03;3.57;;;21.10;69.30;;;;;;5075485;28;20474;-61
2023/10/11 09:39:31;;;;;;;13.23;4.00;;;21.10;69.20;;;;;;5075134;28;20444;-61
2023/10/11 09:42:02;;;;;;;10.90;4.57;;;21.10;69.00;;;;;;5075221;28;20465;-60
2023/10/11 09:44:37;;;;;;;7.50;3.80;;;21.20;69.00;;;;;;5074992;28;20460;-61
2023/10/11 09:47:06;;;;;;;11.80;4.30;;;21.10;68.70;;;;;;5075197;28;20440;-62
2023/10/11 09:49:41;;;;;;;9.03;3.90;;;21.10;69.00;;;;;;5075144;28;20507;-61
2023/10/11 09:52:09;;;;;;;5.73;3.90;;;21.10;69.20;;;;;;5074871;28;20532;-62
2023/10/11 09:54:39;;;;;;;7.07;4.53;;;21.10;69.30;;;;;;5074581;28;20442;-61
2023/10/11 09:57:15;;;;;;;7.53;4.13;;;21.10;69.50;;;;;;5074875;28;20450;-62
2023/10/11 09:59:50;;;;;;;8.90;3.80;;;21.20;69.70;;;;;;5075115;28;20501;-62
2023/10/11 10:02:22;;;;;;;5.30;3.70;;;21.20;69.80;;;;;;5074759;28;20465;-62
2023/10/11 10:05:02;;;;;;;6.47;4.20;;;21.20;69.80;;;;;;5074753;28;20423;-61
2023/10/11 10:07:42;;;;;;;8.27;4.00;;;21.30;70.70;;;;;;5074511;28;20434;-61
2023/10/11 10:10:12;;;;;;;5.67;3.93;;;21.30;70.00;;;;;;5074025;28;20487;-61
2023/10/11 10:12:41;;;;;;;9.50;5.83;;;21.40;69.90;;;;;;5074441;28;20486;-62
2023/10/11 10:15:09;;;;;;;9.13;4.80;;;21.50;69.60;;;;;;5074206;28;20452;-62
2023/10/11 10:17:38;;;;;;;5.73;4.20;;;21.50;69.20;;;;;;5074450;28;20444;-62
2023/10/11 10:20:42;;;;;;;7.33;4.13;;;21.60;69.10;;;;;;5074655;28;20453;-64
2023/10/11 10:23:32;;;;;;;7.40;5.03;;;21.70;68.70;;;;;;5074626;28;20466;-63
2023/10/11 10:26:39;;;;;;;7.67;4.40;;;21.80;68.10;;;;;;5074456;28;20465;-63
2023/10/11 10:29:13;;;;;;;7.27;3.50;;;22.00;67.70;;;;;;5074996;28;20426;-63
2023/10/11 10:32:06;;;;;;;5.90;4.17;;;22.10;67.40;;;;;;5074399;28;20900;-62
2023/10/11 10:34:32;;;;;;;7.13;3.90;;;22.20;67.10;;;;;;5074568;28;20448;-62
2023/10/11 10:37:06;;;;;;;8.47;4.23;;;22.30;66.80;;;;;;5074689;28;20448;-62
2023/10/11 10:39:48;;;;;;;7.93;4.00;;;22.30;66.20;;;;;;5074206;28;20446;-63
2023/10/11 10:42:16;;;;;;;7.60;4.90;;;22.40;66.10;;;;;;5073624;28;20972;-61
2023/10/11 10:44:52;;;;;;;7.40;4.70;;;22.50;65.60;;;;;;5073500;28;20810;-60
2023/10/11 10:47:28;;;;;;;9.67;4.20;;;22.60;64.80;;;;;;5074142;28;20496;-63
2023/10/11 10:49:55;;;;;;;11.97;5.30;;;22.60;64.40;;;;;;5073536;28;20927;-61
2023/10/11 10:52:27;;;;;;;9.33;4.60;;;22.70;63.80;;;;;;5073551;28;20479;-61
2023/10/11 10:55:01;;;;;;;7.17;4.17;;;22.70;63.50;;;;;;5074231;28;20428;-61
2023/10/11 10:57:28;;;;;;;13.53;5.00;;;22.80;62.80;;;;;;5074177;28;20432;-60
2023/10/11 10:59:55;;;;;;;6.53;4.20;;;22.80;62.30;;;;;;5073971;28;20476;-60
2023/10/11 11:02:22;;;;;;;12.60;4.40;;;22.90;61.80;;;;;;5073316;28;20965;-63
2023/10/11 11:04:48;;;;;;;8.70;4.10;;;23.00;61.20;;;;;;5073426;28;20458;-64
2023/10/11 11:07:24;;;;;;;11.60;4.53;;;23.10;61.10;;;;;;5073748;28;20440;-62
2023/10/11 11:09:54;;;;;;;9.43;4.17;;;23.20;60.90;;;;;;5073774;28;20212;-62
2023/10/11 11:12:28;;;;;;;11.70;4.50;;;23.30;60.40;;;;;;5073271;28;20979;-62
2023/10/11 11:14:58;;;;;;;10.33;5.53;;;23.30;60.20;;;;;;5073999;28;20518;-62
2023/10/11 11:17:45;;;;;;;12.77;5.03;;;23.30;60.20;;;;;;5074167;28;20569;-62
2023/10/11 11:20:13;;;;;;;12.83;5.13;;;23.30;60.30;;;;;;5072632;28;20453;-62
2023/10/11 11:22:40;;;;;;;8.97;4.23;;;23.20;60.00;;;;;;5073147;28;20463;-62
2023/10/11 11:25:18;;;;;;;9.13;4.20;;;23.20;60.00;;;;;;5072944;28;20812;-60
2023/10/11 11:27:45;;;;;;;11.27;4.87;;;23.20;60.10;;;;;;5073163;28;20696;-62
2023/10/11 11:30:29;;;;;;;10.13;4.50;;;23.20;60.30;;;;;;5072678;28;20541;-62
2023/10/11 11:32:57;;;;;;;17.60;4.67;;;23.20;60.20;;;;;;5072854;28;20490;-61
2023/10/11 11:35:28;;;;;;;11.10;4.20;;;23.20;60.30;;;;;;5072728;28;20758;-61
2023/10/11 11:38:02;;;;;;;13.27;4.40;;;23.20;60.40;;;;;;5072956;28;20917;-61
2023/10/11 11:40:30;;;;;;;14.37;5.13;;;23.30;60.70;;;;;;5072661;28;20920;-61
2023/10/11 11:43:00;;;;;;;11.50;4.67;;;23.30;60.60;;;;;;5072538;28;20474;-61
2023/10/11 11:45:30;;;;;;;11.53;5.60;;;23.40;60.50;;;;;;5072803;28;20451;-61
2023/10/11 11:47:57;;;;;;;10.40;3.90;;;23.40;60.40;;;;;;5072737;28;20451;-61
2023/10/11 11:50:23;;;;;;;6.80;4.27;;;23.40;60.60;;;;;;5072887;28;20439;-61
2023/10/11 11:52:50;;;;;;;5.37;3.60;;;23.40;60.80;;;;;;5072848;28;20532;-61
2023/10/11 11:55:16;;;;;;;8.73;4.03;;;23.40;60.80;;;;;;5073018;28;20483;-65
2023/10/11 11:57:43;;;;;;;12.93;5.00;;;23.40;60.70;;;;;;5072749;28;20447;-65
2023/10/11 12:00:37;;;;;;;8.67;4.40;;;23.40;60.80;;;;;;5073072;28;20450;-65
2023/10/11 12:03:07;;;;;;;16.00;4.53;;;23.30;61.00;;;;;;5072611;28;20832;-64
2023/10/11 12:05:37;;;;;;;6.93;3.70;;;23.30;61.40;;;;;;5072877;28;20441;-66
2023/10/11 12:08:05;;;;;;;7.97;3.50;;;23.20;61.70;;;;;;5073304;28;20428;-64
2023/10/11 12:10:32;;;;;;;11.23;4.30;;;23.20;62.10;;;;;;5072014;28;20459;-64
2023/10/11 12:13:06;;;;;;;11.20;4.33;;;23.20;62.50;;;;;;5072592;28;20577;-65
2023/10/11 12:15:33;;;;;;;8.40;3.70;;;23.20;62.60;;;;;;5072355;28;20419;-64
2023/10/11 12:18:05;;;;;;;9.00;4.50;;;23.20;62.70;;;;;;5072580;28;20451;-64
2023/10/11 12:20:36;;;;;;;8.20;3.87;;;23.20;63.00;;;;;;5072629;28;20434;-65
2023/10/11 12:23:08;;;;;;;10.50;3.43;;;23.10;62.80;;;;;;5072169;28;20969;-64
2023/10/11 12:25:36;;;;;;;8.40;3.20;;;23.00;63.00;;;;;;5072628;28;20531;-64
2023/10/11 12:28:04;;;;;;;8.63;5.03;;;23.00;63.40;;;;;;5072550;28;20449;-64
2023/10/11 12:30:33;;;;;;;7.60;4.30;;;23.00;63.80;;;;;;5072637;28;20504;-65
2023/10/11 12:33:06;;;;;;;6.00;3.90;;;23.00;64.00;;;;;;5074456;28;20569;-65
2023/10/11 12:35:37;;;;;;;12.13;4.67;;;23.00;64.30;;;;;;5076669;28;20499;-65
2023/10/11 12:38:04;;;;;;;8.50;4.37;;;23.00;64.50;;;;;;5076718;28;20525;-66
2023/10/11 12:40:34;;;;;;;7.77;4.33;;;23.00;64.70;;;;;;5076363;28;20465;-62
2023/10/11 12:43:01;;;;;;;10.33;4.87;;;22.90;64.90;;;;;;5076511;28;20458;-62
2023/10/11 12:45:28;;;;;;;8.27;4.77;;;22.80;65.40;;;;;;5076744;28;20439;-60
2023/10/11 12:47:55;;;;;;;10.67;4.67;;;22.80;66.00;;;;;;5075893;28;20910;-61
2023/10/11 12:50:22;;;;;;;12.53;5.07;;;22.70;66.60;;;;;;5076335;28;20450;-61
2023/10/11 12:52:52;;;;;;;13.00;5.30;;;22.60;67.10;;;;;;5076006;28;21083;-62
2023/10/11 12:55:20;;;;;;;9.43;4.53;;;22.60;67.70;;;;;;5075788;28;20876;-63
2023/10/11 12:57:48;;;;;;;7.60;4.20;;;22.60;68.60;;;;;;5075510;28;20482;-61
2023/10/11 13:00:28;;;;;;;11.90;4.80;;;22.50;69.20;;;;;;5075690;28;20439;-61
2023/10/11 13:02:58;;;;;;;7.27;4.20;;;22.50;69.80;;;;;;5076074;28;20468;-61
2023/10/11 13:05:27;;;;;;;13.07;5.20;;;22.50;70.30;;;;;;5075767;28;20446;-60
2023/10/11 13:07:55;;;;;;;6.07;4.70;;;22.50;70.80;;;;;;5076001;28;20830;-61
2023/10/11 13:10:23;;;;;;;10.17;4.50;;;22.50;71.30;;;;;;5075264;28;20458;-61
2023/10/11 13:12:53;;;;;;;7.80;4.70;;;22.40;71.70;;;;;;5075646;28;20482;-61
2023/10/11 13:15:22;;;;;;;14.63;5.27;;;22.40;72.10;;;;;;5075778;28;20454;-61
2023/10/11 13:17:49;;;;;;;6.80;4.13;;;22.40;72.50;;;;;;5075731;28;20541;-61
2023/10/11 13:20:19;;;;;;;11.87;4.60;;;22.40;73.00;;;;;;5075785;28;20442;-61
2023/10/11 13:22:47;;;;;;;7.03;4.87;;;22.30;73.40;;;;;;5075640;28;20458;-60